sensor_id;sensor_type;location;lat;lon;timestamp;P1;durP1;ratioP1;P2;durP2;ratioP2
10009;SDS011;5044;48.652;9.250;2023-06-04T00:01:42;6.47;;;4.57;;
10009;SDS011;5044;48.652;9.250;2023-06-04T00:04:11;9.38;;;4.28;;
10009;SDS011;5044;48.652;9.250;2023-06-04T00:06:38;4.38;;;3.38;;
10009;SDS011;5044;48.652;9.250;2023-06-04T00:09:05;5.30;;;4.32;;
10009;SDS011;5044;48.652;9.250;2023-06-04T00:11:32;6.55;;;4.57;;
10009;SDS011;5044;48.652;9.250;2023-06-04T00:14:02;6.93;;;4.28;;
10009;SDS011;5044;48.652;9.250;2023-06-04T00:16:29;9.95;;;4.45;;
10009;SDS011;5044;48.652;9.250;2023-06-04T00:18:55;7.80;;;4.05;;
10009;SDS011;5044;48.652;9.250;2023-06-04T00:21:22;7.03;;;3.55;;
10009;SDS011;5044;48.652;9.250;2023-06-04T00:23:49;10.07;;;4.07;;
10009;SDS011;5044;48.652;9.250;2023-06-04T00:26:16;4.97;;;3.22;;
10009;SDS011;5044;48.652;9.250;2023-06-04T00:28:43;7.32;;;3.95;;
10009;SDS011;5044;48.652;9.250;2023-06-04T00:31:12;5.88;;;3.72;;
10009;SDS011;5044;48.652;9.250;2023-06-04T00:33:39;7.57;;;3.83;;
10009;SDS011;5044;48.652;9.250;2023-06-04T00:36:06;6.80;;;4.03;;
10009;SDS011;5044;48.652;9.250;2023-06-04T00:38:34;5.20;;;3.38;;
10009;SDS011;5044;48.652;9.250;2023-06-04T00:41:01;7.45;;;4.00;;
10009;SDS011;5044;48.652;9.250;2023-06-04T00:43:28;4.45;;;3.20;;
10009;SDS011;5044;48.652;9.250;2023-06-04T00:45:56;7.03;;;2.85;;
10009;SDS011;5044;48.652;9.250;2023-06-04T00:48:25;8.68;;;3.08;;
10009;SDS011;5044;48.652;9.250;2023-06-04T00:50:53;6.55;;;2.80;;
10009;SDS011;5044;48.652;9.250;2023-06-04T00:53:20;8.90;;;3.65;;
10009;SDS011;5044;48.652;9.250;2023-06-04T00:55:49;5.45;;;3.67;;
10009;SDS011;5044;48.652;9.250;2023-06-04T00:58:16;6.22;;;3.72;;
10009;SDS011;5044;48.652;9.250;2023-06-04T01:00:43;6.18;;;3.78;;
10009;SDS011;5044;48.652;9.250;2023-06-04T01:03:12;5.53;;;3.45;;
10009;SDS011;5044;48.652;9.250;2023-06-04T01:05:48;5.43;;;3.28;;
10009;SDS011;5044;48.652;9.250;2023-06-04T01:08:24;5.65;;;3.42;;
10009;SDS011;5044;48.652;9.250;2023-06-04T01:10:53;16.27;;;4.60;;
10009;SDS011;5044;48.652;9.250;2023-06-04T01:13:20;6.18;;;3.30;;
10009;SDS011;5044;48.652;9.250;2023-06-04T01:15:48;6.97;;;3.00;;
10009;SDS011;5044;48.652;9.250;2023-06-04T01:18:15;4.30;;;3.20;;
10009;SDS011;5044;48.652;9.250;2023-06-04T01:20:54;6.00;;;2.55;;
10009;SDS011;5044;48.652;9.250;2023-06-04T01:23:25;4.93;;;3.25;;
10009;SDS011;5044;48.652;9.250;2023-06-04T01:25:59;7.20;;;2.90;;
10009;SDS011;5044;48.652;9.250;2023-06-04T01:28:28;4.82;;;3.42;;
10009;SDS011;5044;48.652;9.250;2023-06-04T01:30:56;4.70;;;2.88;;
10009;SDS011;5044;48.652;9.250;2023-06-04T01:33:25;6.20;;;3.72;;
10009;SDS011;5044;48.652;9.250;2023-06-04T01:35:53;6.93;;;3.30;;
10009;SDS011;5044;48.652;9.250;2023-06-04T01:38:21;5.90;;;3.63;;
10009;SDS011;5044;48.652;9.250;2023-06-04T01:40:49;4.53;;;3.28;;
10009;SDS011;5044;48.652;9.250;2023-06-04T01:43:21;5.82;;;3.38;;
10009;SDS011;5044;48.652;9.250;2023-06-04T01:45:48;6.35;;;3.35;;
10009;SDS011;5044;48.652;9.250;2023-06-04T01:48:16;5.90;;;3.50;;
10009;SDS011;5044;48.652;9.250;2023-06-04T01:50:43;5.95;;;3.63;;
10009;SDS011;5044;48.652;9.250;2023-06-04T01:53:11;10.20;;;4.38;;
10009;SDS011;5044;48.652;9.250;2023-06-04T01:55:38;4.80;;;3.15;;
10009;SDS011;5044;48.652;9.250;2023-06-04T01:58:04;7.78;;;4.75;;
10009;SDS011;5044;48.652;9.250;2023-06-04T02:00:32;4.82;;;3.25;;
10009;SDS011;5044;48.652;9.250;2023-06-04T02:02:59;6.13;;;3.17;;
10009;SDS011;5044;48.652;9.250;2023-06-04T02:05:25;7.07;;;3.92;;
10009;SDS011;5044;48.652;9.250;2023-06-04T02:07:53;5.00;;;3.53;;
10009;SDS011;5044;48.652;9.250;2023-06-04T02:10:21;8.80;;;3.60;;
10009;SDS011;5044;48.652;9.250;2023-06-04T02:12:55;7.75;;;3.45;;
10009;SDS011;5044;48.652;9.250;2023-06-04T02:15:24;9.55;;;3.55;;
10009;SDS011;5044;48.652;9.250;2023-06-04T02:17:53;4.47;;;3.00;;
10009;SDS011;5044;48.652;9.250;2023-06-04T02:20:23;6.90;;;3.70;;
10009;SDS011;5044;48.652;9.250;2023-06-04T02:22:50;7.63;;;3.35;;
10009;SDS011;5044;48.652;9.250;2023-06-04T02:25:17;12.15;;;3.00;;
10009;SDS011;5044;48.652;9.250;2023-06-04T02:27:45;4.97;;;3.58;;
10009;SDS011;5044;48.652;9.250;2023-06-04T02:30:12;4.78;;;3.15;;
10009;SDS011;5044;48.652;9.250;2023-06-04T02:32:40;4.55;;;2.70;;
10009;SDS011;5044;48.652;9.250;2023-06-04T02:35:09;4.22;;;2.75;;
10009;SDS011;5044;48.652;9.250;2023-06-04T02:37:36;4.78;;;2.80;;
10009;SDS011;5044;48.652;9.250;2023-06-04T02:40:03;3.97;;;2.40;;
10009;SDS011;5044;48.652;9.250;2023-06-04T02:42:31;4.30;;;2.58;;
10009;SDS011;5044;48.652;9.250;2023-06-04T02:44:59;5.05;;;2.55;;
10009;SDS011;5044;48.652;9.250;2023-06-04T02:47:26;6.97;;;2.50;;
10009;SDS011;5044;48.652;9.250;2023-06-04T02:49:53;5.38;;;2.53;;
10009;SDS011;5044;48.652;9.250;2023-06-04T02:52:20;6.40;;;2.70;;
10009;SDS011;5044;48.652;9.250;2023-06-04T02:54:47;3.53;;;2.28;;
10009;SDS011;5044;48.652;9.250;2023-06-04T02:57:14;5.07;;;3.10;;
10009;SDS011;5044;48.652;9.250;2023-06-04T02:59:41;5.10;;;3.35;;
10009;SDS011;5044;48.652;9.250;2023-06-04T03:02:09;5.05;;;3.03;;
10009;SDS011;5044;48.652;9.250;2023-06-04T03:04:37;5.50;;;3.78;;
10009;SDS011;5044;48.652;9.250;2023-06-04T03:07:04;5.00;;;3.33;;
10009;SDS011;5044;48.652;9.250;2023-06-04T03:09:33;6.97;;;3.40;;
10009;SDS011;5044;48.652;9.250;2023-06-04T03:12:00;7.05;;;2.80;;
10009;SDS011;5044;48.652;9.250;2023-06-04T03:14:27;5.28;;;3.28;;
10009;SDS011;5044;48.652;9.250;2023-06-04T03:16:57;4.00;;;2.50;;
10009;SDS011;5044;48.652;9.250;2023-06-04T03:19:35;4.13;;;2.55;;
10009;SDS011;5044;48.652;9.250;2023-06-04T03:22:04;4.35;;;2.88;;
10009;SDS011;5044;48.652;9.250;2023-06-04T03:24:32;7.30;;;2.72;;
10009;SDS011;5044;48.652;9.250;2023-06-04T03:27:01;10.10;;;3.13;;
10009;SDS011;5044;48.652;9.250;2023-06-04T03:29:28;3.97;;;2.30;;
10009;SDS011;5044;48.652;9.250;2023-06-04T03:31:57;5.40;;;2.80;;
10009;SDS011;5044;48.652;9.250;2023-06-04T03:34:23;4.38;;;3.15;;
10009;SDS011;5044;48.652;9.250;2023-06-04T03:36:52;8.77;;;2.88;;
10009;SDS011;5044;48.652;9.250;2023-06-04T03:39:19;5.78;;;3.35;;
10009;SDS011;5044;48.652;9.250;2023-06-04T03:41:47;3.42;;;2.33;;
10009;SDS011;5044;48.652;9.250;2023-06-04T03:44:14;5.05;;;2.58;;
10009;SDS011;5044;48.652;9.250;2023-06-04T03:46:41;5.63;;;2.78;;
10009;SDS011;5044;48.652;9.250;2023-06-04T03:49:08;6.68;;;3.17;;
10009;SDS011;5044;48.652;9.250;2023-06-04T03:51:35;4.40;;;2.88;;
10009;SDS011;5044;48.652;9.250;2023-06-04T03:54:04;8.95;;;3.00;;
10009;SDS011;5044;48.652;9.250;2023-06-04T03:56:31;4.47;;;2.83;;
10009;SDS011;5044;48.652;9.250;2023-06-04T03:58:58;3.25;;;1.88;;
10009;SDS011;5044;48.652;9.250;2023-06-04T04:01:25;5.97;;;2.63;;
10009;SDS011;5044;48.652;9.250;2023-06-04T04:03:53;5.47;;;2.78;;
10009;SDS011;5044;48.652;9.250;2023-06-04T04:06:20;5.50;;;3.10;;
10009;SDS011;5044;48.652;9.250;2023-06-04T04:08:47;4.72;;;3.15;;
10009;SDS011;5044;48.652;9.250;2023-06-04T04:11:16;4.32;;;2.80;;
10009;SDS011;5044;48.652;9.250;2023-06-04T04:13:44;3.50;;;2.25;;
10009;SDS011;5044;48.652;9.250;2023-06-04T04:16:11;4.03;;;2.70;;
10009;SDS011;5044;48.652;9.250;2023-06-04T04:18:40;7.32;;;2.90;;
10009;SDS011;5044;48.652;9.250;2023-06-04T04:21:08;2.55;;;2.05;;
10009;SDS011;5044;48.652;9.250;2023-06-04T04:23:37;4.65;;;2.25;;
10009;SDS011;5044;48.652;9.250;2023-06-04T04:26:05;2.90;;;1.70;;
10009;SDS011;5044;48.652;9.250;2023-06-04T04:28:33;3.30;;;1.83;;
10009;SDS011;5044;48.652;9.250;2023-06-04T04:31:00;5.35;;;2.10;;
10009;SDS011;5044;48.652;9.250;2023-06-04T04:33:27;3.78;;;1.92;;
10009;SDS011;5044;48.652;9.250;2023-06-04T04:35:57;3.90;;;1.88;;
10009;SDS011;5044;48.652;9.250;2023-06-04T04:38:25;4.05;;;1.95;;
10009;SDS011;5044;48.652;9.250;2023-06-04T04:40:53;5.20;;;1.50;;
10009;SDS011;5044;48.652;9.250;2023-06-04T04:43:28;2.60;;;1.75;;
10009;SDS011;5044;48.652;9.250;2023-06-04T04:45:57;2.20;;;1.60;;
10009;SDS011;5044;48.652;9.250;2023-06-04T04:48:24;3.20;;;1.80;;
10009;SDS011;5044;48.652;9.250;2023-06-04T04:50:51;3.33;;;1.35;;
10009;SDS011;5044;48.652;9.250;2023-06-04T04:53:18;6.95;;;1.92;;
10009;SDS011;5044;48.652;9.250;2023-06-04T04:55:45;4.00;;;1.92;;
10009;SDS011;5044;48.652;9.250;2023-06-04T04:58:12;3.75;;;1.98;;
10009;SDS011;5044;48.652;9.250;2023-06-04T05:00:39;4.22;;;2.42;;
10009;SDS011;5044;48.652;9.250;2023-06-04T05:03:07;4.00;;;2.10;;
10009;SDS011;5044;48.652;9.250;2023-06-04T05:05:34;5.50;;;2.58;;
10009;SDS011;5044;48.652;9.250;2023-06-04T05:08:00;6.05;;;2.45;;
10009;SDS011;5044;48.652;9.250;2023-06-04T05:10:27;4.53;;;2.22;;
10009;SDS011;5044;48.652;9.250;2023-06-04T05:12:55;5.00;;;2.33;;
10009;SDS011;5044;48.652;9.250;2023-06-04T05:15:24;5.65;;;2.28;;
10009;SDS011;5044;48.652;9.250;2023-06-04T05:17:51;3.15;;;1.88;;
10009;SDS011;5044;48.652;9.250;2023-06-04T05:20:20;4.30;;;1.98;;
10009;SDS011;5044;48.652;9.250;2023-06-04T05:22:47;4.40;;;2.00;;
10009;SDS011;5044;48.652;9.250;2023-06-04T05:25:14;6.07;;;2.33;;
10009;SDS011;5044;48.652;9.250;2023-06-04T05:27:42;2.42;;;1.50;;
10009;SDS011;5044;48.652;9.250;2023-06-04T05:30:10;3.25;;;1.70;;
10009;SDS011;5044;48.652;9.250;2023-06-04T05:32:38;2.33;;;1.45;;
10009;SDS011;5044;48.652;9.250;2023-06-04T05:35:06;4.88;;;2.10;;
10009;SDS011;5044;48.652;9.250;2023-06-04T05:37:36;5.72;;;1.42;;
10009;SDS011;5044;48.652;9.250;2023-06-04T05:40:05;7.10;;;1.50;;
10009;SDS011;5044;48.652;9.250;2023-06-04T05:42:34;1.70;;;1.20;;
10009;SDS011;5044;48.652;9.250;2023-06-04T05:45:01;4.20;;;1.25;;
10009;SDS011;5044;48.652;9.250;2023-06-04T05:47:29;3.28;;;1.90;;
10009;SDS011;5044;48.652;9.250;2023-06-04T05:49:56;2.72;;;1.45;;
10009;SDS011;5044;48.652;9.250;2023-06-04T05:52:23;1.90;;;1.30;;
10009;SDS011;5044;48.652;9.250;2023-06-04T05:54:51;2.40;;;1.50;;
10009;SDS011;5044;48.652;9.250;2023-06-04T05:57:19;6.28;;;1.65;;
10009;SDS011;5044;48.652;9.250;2023-06-04T05:59:47;4.63;;;1.50;;
10009;SDS011;5044;48.652;9.250;2023-06-04T06:02:13;4.13;;;1.40;;
10009;SDS011;5044;48.652;9.250;2023-06-04T06:04:40;3.15;;;1.42;;
10009;SDS011;5044;48.652;9.250;2023-06-04T06:07:07;4.78;;;2.03;;
10009;SDS011;5044;48.652;9.250;2023-06-04T06:09:34;4.25;;;1.55;;
10009;SDS011;5044;48.652;9.250;2023-06-04T06:12:03;4.07;;;1.40;;
10009;SDS011;5044;48.652;9.250;2023-06-04T06:14:30;2.85;;;1.40;;
10009;SDS011;5044;48.652;9.250;2023-06-04T06:16:57;4.35;;;1.60;;
10009;SDS011;5044;48.652;9.250;2023-06-04T06:19:25;3.45;;;1.35;;
10009;SDS011;5044;48.652;9.250;2023-06-04T06:21:52;3.65;;;1.58;;
10009;SDS011;5044;48.652;9.250;2023-06-04T06:24:19;2.15;;;1.23;;
10009;SDS011;5044;48.652;9.250;2023-06-04T06:26:46;4.28;;;2.25;;
10009;SDS011;5044;48.652;9.250;2023-06-04T06:29:14;5.20;;;1.48;;
10009;SDS011;5044;48.652;9.250;2023-06-04T06:31:41;2.05;;;1.48;;
10009;SDS011;5044;48.652;9.250;2023-06-04T06:34:08;6.28;;;1.88;;
10009;SDS011;5044;48.652;9.250;2023-06-04T06:36:35;5.65;;;1.52;;
10009;SDS011;5044;48.652;9.250;2023-06-04T06:39:01;1.85;;;1.17;;
10009;SDS011;5044;48.652;9.250;2023-06-04T06:41:28;2.42;;;1.30;;
10009;SDS011;5044;48.652;9.250;2023-06-04T06:43:56;3.80;;;1.88;;
10009;SDS011;5044;48.652;9.250;2023-06-04T06:46:24;2.03;;;1.30;;
10009;SDS011;5044;48.652;9.250;2023-06-04T06:48:51;5.00;;;1.63;;
10009;SDS011;5044;48.652;9.250;2023-06-04T06:51:18;2.55;;;1.60;;
10009;SDS011;5044;48.652;9.250;2023-06-04T06:53:44;2.42;;;1.60;;
10009;SDS011;5044;48.652;9.250;2023-06-04T06:56:13;4.05;;;1.48;;
10009;SDS011;5044;48.652;9.250;2023-06-04T06:58:40;4.45;;;1.75;;
10009;SDS011;5044;48.652;9.250;2023-06-04T07:01:07;2.65;;;1.70;;
10009;SDS011;5044;48.652;9.250;2023-06-04T07:03:35;1.75;;;1.10;;
10009;SDS011;5044;48.652;9.250;2023-06-04T07:06:03;2.05;;;1.50;;
10009;SDS011;5044;48.652;9.250;2023-06-04T07:08:30;2.75;;;1.50;;
10009;SDS011;5044;48.652;9.250;2023-06-04T07:10:57;2.67;;;1.42;;
10009;SDS011;5044;48.652;9.250;2023-06-04T07:13:24;2.97;;;1.30;;
10009;SDS011;5044;48.652;9.250;2023-06-04T07:15:51;4.82;;;1.85;;
10009;SDS011;5044;48.652;9.250;2023-06-04T07:18:18;2.72;;;1.50;;
10009;SDS011;5044;48.652;9.250;2023-06-04T07:20:46;3.28;;;1.45;;
10009;SDS011;5044;48.652;9.250;2023-06-04T07:23:13;2.60;;;1.58;;
10009;SDS011;5044;48.652;9.250;2023-06-04T07:25:40;3.05;;;1.85;;
10009;SDS011;5044;48.652;9.250;2023-06-04T07:28:06;2.83;;;1.90;;
10009;SDS011;5044;48.652;9.250;2023-06-04T07:30:33;2.55;;;1.45;;
10009;SDS011;5044;48.652;9.250;2023-06-04T07:33:01;2.83;;;1.35;;
10009;SDS011;5044;48.652;9.250;2023-06-04T07:35:28;3.28;;;1.80;;
10009;SDS011;5044;48.652;9.250;2023-06-04T07:37:56;5.10;;;1.98;;
10009;SDS011;5044;48.652;9.250;2023-06-04T07:40:23;1.98;;;1.48;;
10009;SDS011;5044;48.652;9.250;2023-06-04T07:42:50;5.68;;;1.52;;
10009;SDS011;5044;48.652;9.250;2023-06-04T07:45:17;2.90;;;1.83;;
10009;SDS011;5044;48.652;9.250;2023-06-04T07:47:44;5.32;;;1.90;;
10009;SDS011;5044;48.652;9.250;2023-06-04T07:50:11;4.20;;;1.50;;
10009;SDS011;5044;48.652;9.250;2023-06-04T07:52:38;3.40;;;1.85;;
10009;SDS011;5044;48.652;9.250;2023-06-04T07:55:06;2.60;;;1.60;;
10009;SDS011;5044;48.652;9.250;2023-06-04T07:57:34;2.47;;;1.77;;
10009;SDS011;5044;48.652;9.250;2023-06-04T08:00:02;4.60;;;1.40;;
10009;SDS011;5044;48.652;9.250;2023-06-04T08:02:30;3.58;;;1.50;;
10009;SDS011;5044;48.652;9.250;2023-06-04T08:04:57;3.47;;;1.48;;
10009;SDS011;5044;48.652;9.250;2023-06-04T08:07:24;8.40;;;2.05;;
10009;SDS011;5044;48.652;9.250;2023-06-04T08:09:51;1.77;;;1.60;;
10009;SDS011;5044;48.652;9.250;2023-06-04T08:12:19;3.50;;;1.35;;
10009;SDS011;5044;48.652;9.250;2023-06-04T08:14:46;4.80;;;1.70;;
10009;SDS011;5044;48.652;9.250;2023-06-04T08:17:12;2.65;;;1.38;;
10009;SDS011;5044;48.652;9.250;2023-06-04T08:19:39;4.63;;;1.95;;
10009;SDS011;5044;48.652;9.250;2023-06-04T08:22:06;2.92;;;2.00;;
10009;SDS011;5044;48.652;9.250;2023-06-04T08:24:36;5.30;;;1.92;;
10009;SDS011;5044;48.652;9.250;2023-06-04T08:27:03;3.42;;;1.67;;
10009;SDS011;5044;48.652;9.250;2023-06-04T08:29:33;3.53;;;1.83;;
10009;SDS011;5044;48.652;9.250;2023-06-04T08:32:01;2.35;;;1.63;;
10009;SDS011;5044;48.652;9.250;2023-06-04T08:34:29;2.45;;;1.30;;
10009;SDS011;5044;48.652;9.250;2023-06-04T08:36:55;4.40;;;1.83;;
10009;SDS011;5044;48.652;9.250;2023-06-04T08:39:22;6.50;;;1.88;;
10009;SDS011;5044;48.652;9.250;2023-06-04T08:41:51;3.05;;;1.40;;
10009;SDS011;5044;48.652;9.250;2023-06-04T08:44:18;4.10;;;1.60;;
10009;SDS011;5044;48.652;9.250;2023-06-04T08:46:47;3.65;;;1.75;;
10009;SDS011;5044;48.652;9.250;2023-06-04T08:49:17;2.38;;;1.55;;
10009;SDS011;5044;48.652;9.250;2023-06-04T08:51:47;2.50;;;1.60;;
10009;SDS011;5044;48.652;9.250;2023-06-04T08:54:14;3.75;;;1.80;;
10009;SDS011;5044;48.652;9.250;2023-06-04T08:56:41;3.47;;;1.70;;
10009;SDS011;5044;48.652;9.250;2023-06-04T08:59:10;4.80;;;1.70;;
10009;SDS011;5044;48.652;9.250;2023-06-04T09:01:38;4.28;;;1.60;;
10009;SDS011;5044;48.652;9.250;2023-06-04T09:04:10;4.13;;;1.77;;
10009;SDS011;5044;48.652;9.250;2023-06-04T09:06:37;3.25;;;1.67;;
10009;SDS011;5044;48.652;9.250;2023-06-04T09:09:08;5.22;;;2.00;;
10009;SDS011;5044;48.652;9.250;2023-06-04T09:14:06;5.47;;;2.38;;
10009;SDS011;5044;48.652;9.250;2023-06-04T09:16:41;3.67;;;2.25;;
10009;SDS011;5044;48.652;9.250;2023-06-04T09:19:10;4.32;;;1.83;;
10009;SDS011;5044;48.652;9.250;2023-06-04T09:21:45;4.43;;;1.60;;
10009;SDS011;5044;48.652;9.250;2023-06-04T09:24:16;5.35;;;1.95;;
10009;SDS011;5044;48.652;9.250;2023-06-04T09:26:43;3.38;;;2.00;;
10009;SDS011;5044;48.652;9.250;2023-06-04T09:29:11;2.40;;;1.63;;
10009;SDS011;5044;48.652;9.250;2023-06-04T09:31:38;4.32;;;1.80;;
10009;SDS011;5044;48.652;9.250;2023-06-04T09:34:05;2.45;;;1.60;;
10009;SDS011;5044;48.652;9.250;2023-06-04T09:36:33;4.70;;;1.90;;
10009;SDS011;5044;48.652;9.250;2023-06-04T09:39:01;5.07;;;2.17;;
10009;SDS011;5044;48.652;9.250;2023-06-04T09:41:29;2.60;;;1.92;;
10009;SDS011;5044;48.652;9.250;2023-06-04T09:43:59;4.45;;;1.98;;
10009;SDS011;5044;48.652;9.250;2023-06-04T09:46:27;5.65;;;2.10;;
10009;SDS011;5044;48.652;9.250;2023-06-04T09:48:59;2.67;;;2.28;;
10009;SDS011;5044;48.652;9.250;2023-06-04T09:51:26;5.05;;;1.90;;
10009;SDS011;5044;48.652;9.250;2023-06-04T09:53:55;3.40;;;1.80;;
10009;SDS011;5044;48.652;9.250;2023-06-04T09:56:23;2.05;;;1.65;;
10009;SDS011;5044;48.652;9.250;2023-06-04T09:58:53;2.65;;;1.85;;
10009;SDS011;5044;48.652;9.250;2023-06-04T10:01:21;7.57;;;2.30;;
10009;SDS011;5044;48.652;9.250;2023-06-04T10:03:50;5.88;;;2.15;;
10009;SDS011;5044;48.652;9.250;2023-06-04T10:06:17;2.35;;;2.10;;
10009;SDS011;5044;48.652;9.250;2023-06-04T10:08:45;3.83;;;2.42;;
10009;SDS011;5044;48.652;9.250;2023-06-04T10:11:16;7.55;;;2.35;;
10009;SDS011;5044;48.652;9.250;2023-06-04T10:13:59;3.25;;;2.30;;
10009;SDS011;5044;48.652;9.250;2023-06-04T10:16:29;5.50;;;2.47;;
10009;SDS011;5044;48.652;9.250;2023-06-04T10:18:58;3.55;;;2.40;;
10009;SDS011;5044;48.652;9.250;2023-06-04T10:21:26;5.18;;;2.35;;
10009;SDS011;5044;48.652;9.250;2023-06-04T10:23:57;3.38;;;2.13;;
10009;SDS011;5044;48.652;9.250;2023-06-04T10:26:25;4.00;;;2.08;;
10009;SDS011;5044;48.652;9.250;2023-06-04T10:28:52;2.65;;;2.25;;
10009;SDS011;5044;48.652;9.250;2023-06-04T10:31:19;5.80;;;2.80;;
10009;SDS011;5044;48.652;9.250;2023-06-04T10:33:46;3.80;;;2.15;;
10009;SDS011;5044;48.652;9.250;2023-06-04T10:36:17;7.60;;;2.50;;
10009;SDS011;5044;48.652;9.250;2023-06-04T10:38:45;3.50;;;2.25;;
10009;SDS011;5044;48.652;9.250;2023-06-04T10:41:13;3.13;;;2.33;;
10009;SDS011;5044;48.652;9.250;2023-06-04T10:43:42;3.40;;;2.65;;
10009;SDS011;5044;48.652;9.250;2023-06-04T10:46:12;5.00;;;2.65;;
10009;SDS011;5044;48.652;9.250;2023-06-04T10:48:48;3.53;;;2.17;;
10009;SDS011;5044;48.652;9.250;2023-06-04T10:51:16;3.75;;;2.55;;
10009;SDS011;5044;48.652;9.250;2023-06-04T10:53:55;6.68;;;2.47;;
10009;SDS011;5044;48.652;9.250;2023-06-04T10:56:25;5.18;;;3.25;;
10009;SDS011;5044;48.652;9.250;2023-06-04T11:01:24;4.90;;;2.58;;
10009;SDS011;5044;48.652;9.250;2023-06-04T11:03:51;4.57;;;2.80;;
10009;SDS011;5044;48.652;9.250;2023-06-04T11:06:18;3.13;;;2.47;;
10009;SDS011;5044;48.652;9.250;2023-06-04T11:08:46;3.35;;;2.08;;
10009;SDS011;5044;48.652;9.250;2023-06-04T11:11:13;4.57;;;2.78;;
10009;SDS011;5044;48.652;9.250;2023-06-04T11:13:40;4.80;;;2.70;;
10009;SDS011;5044;48.652;9.250;2023-06-04T11:16:18;6.22;;;2.47;;
10009;SDS011;5044;48.652;9.250;2023-06-04T11:18:53;3.90;;;2.58;;
10009;SDS011;5044;48.652;9.250;2023-06-04T11:21:21;3.00;;;2.33;;
10009;SDS011;5044;48.652;9.250;2023-06-04T11:23:48;5.07;;;2.70;;
10009;SDS011;5044;48.652;9.250;2023-06-04T11:26:15;7.43;;;2.50;;
10009;SDS011;5044;48.652;9.250;2023-06-04T11:28:42;4.10;;;2.65;;
10009;SDS011;5044;48.652;9.250;2023-06-04T11:31:10;6.03;;;2.53;;
10009;SDS011;5044;48.652;9.250;2023-06-04T11:33:44;3.65;;;2.70;;
10009;SDS011;5044;48.652;9.250;2023-06-04T11:36:21;5.18;;;2.30;;
10009;SDS011;5044;48.652;9.250;2023-06-04T11:38:53;3.53;;;2.28;;
10009;SDS011;5044;48.652;9.250;2023-06-04T11:41:21;4.18;;;2.47;;
10009;SDS011;5044;48.652;9.250;2023-06-04T11:43:48;2.88;;;2.30;;
10009;SDS011;5044;48.652;9.250;2023-06-04T11:46:15;6.10;;;2.30;;
10009;SDS011;5044;48.652;9.250;2023-06-04T11:48:43;4.65;;;2.33;;
10009;SDS011;5044;48.652;9.250;2023-06-04T11:51:10;5.75;;;3.03;;
10009;SDS011;5044;48.652;9.250;2023-06-04T11:53:38;3.08;;;2.42;;
10009;SDS011;5044;48.652;9.250;2023-06-04T11:56:05;5.68;;;4.03;;
10009;SDS011;5044;48.652;9.250;2023-06-04T11:58:32;3.88;;;2.53;;
10009;SDS011;5044;48.652;9.250;2023-06-04T12:00:59;3.55;;;2.35;;
10009;SDS011;5044;48.652;9.250;2023-06-04T12:03:36;3.63;;;2.60;;
10009;SDS011;5044;48.652;9.250;2023-06-04T12:06:14;5.75;;;2.47;;
10009;SDS011;5044;48.652;9.250;2023-06-04T12:08:49;3.38;;;2.67;;
10009;SDS011;5044;48.652;9.250;2023-06-04T12:11:24;2.80;;;2.47;;
10009;SDS011;5044;48.652;9.250;2023-06-04T12:13:53;3.03;;;2.35;;
10009;SDS011;5044;48.652;9.250;2023-06-04T12:16:20;5.20;;;2.95;;
10009;SDS011;5044;48.652;9.250;2023-06-04T12:18:47;3.65;;;2.58;;
10009;SDS011;5044;48.652;9.250;2023-06-04T12:21:22;3.47;;;2.72;;
10009;SDS011;5044;48.652;9.250;2023-06-04T12:23:52;3.03;;;2.47;;
10009;SDS011;5044;48.652;9.250;2023-06-04T12:26:21;3.50;;;2.63;;
10009;SDS011;5044;48.652;9.250;2023-06-04T12:29:00;8.55;;;3.08;;
10009;SDS011;5044;48.652;9.250;2023-06-04T12:31:27;3.85;;;2.42;;
10009;SDS011;5044;48.652;9.250;2023-06-04T12:33:57;3.30;;;2.50;;
10009;SDS011;5044;48.652;9.250;2023-06-04T12:36:26;5.50;;;2.67;;
10009;SDS011;5044;48.652;9.250;2023-06-04T12:38:53;2.35;;;2.08;;
10009;SDS011;5044;48.652;9.250;2023-06-04T12:41:25;4.18;;;2.67;;
10009;SDS011;5044;48.652;9.250;2023-06-04T12:43:52;2.80;;;2.42;;
10009;SDS011;5044;48.652;9.250;2023-06-04T12:46:19;4.53;;;3.10;;
10009;SDS011;5044;48.652;9.250;2023-06-04T12:48:46;3.40;;;2.78;;
10009;SDS011;5044;48.652;9.250;2023-06-04T12:51:13;3.25;;;2.40;;
10009;SDS011;5044;48.652;9.250;2023-06-04T12:53:41;5.97;;;2.65;;
10009;SDS011;5044;48.652;9.250;2023-06-04T12:56:09;3.97;;;2.85;;
10009;SDS011;5044;48.652;9.250;2023-06-04T12:58:36;6.60;;;2.53;;
10009;SDS011;5044;48.652;9.250;2023-06-04T13:01:03;5.10;;;2.75;;
10009;SDS011;5044;48.652;9.250;2023-06-04T13:03:30;3.80;;;2.55;;
10009;SDS011;5044;48.652;9.250;2023-06-04T13:05:58;2.90;;;2.17;;
10009;SDS011;5044;48.652;9.250;2023-06-04T13:08:25;4.32;;;2.50;;
10009;SDS011;5044;48.652;9.250;2023-06-04T13:10:53;3.38;;;2.30;;
10009;SDS011;5044;48.652;9.250;2023-06-04T13:13:20;4.82;;;2.90;;
10009;SDS011;5044;48.652;9.250;2023-06-04T13:15:47;2.65;;;2.38;;
10009;SDS011;5044;48.652;9.250;2023-06-04T13:18:14;4.05;;;2.70;;
10009;SDS011;5044;48.652;9.250;2023-06-04T13:20:40;5.00;;;3.10;;
10009;SDS011;5044;48.652;9.250;2023-06-04T13:23:08;7.13;;;3.05;;
10009;SDS011;5044;48.652;9.250;2023-06-04T13:25:37;2.80;;;2.20;;
10009;SDS011;5044;48.652;9.250;2023-06-04T13:28:05;5.05;;;2.53;;
10009;SDS011;5044;48.652;9.250;2023-06-04T13:30:33;4.63;;;3.20;;
10009;SDS011;5044;48.652;9.250;2023-06-04T13:33:01;5.07;;;2.65;;
10009;SDS011;5044;48.652;9.250;2023-06-04T13:35:27;4.13;;;2.45;;
10009;SDS011;5044;48.652;9.250;2023-06-04T13:37:54;4.15;;;2.30;;
10009;SDS011;5044;48.652;9.250;2023-06-04T13:40:21;3.53;;;2.65;;
10009;SDS011;5044;48.652;9.250;2023-06-04T13:42:48;3.17;;;2.67;;
10009;SDS011;5044;48.652;9.250;2023-06-04T13:45:16;4.05;;;2.20;;
10009;SDS011;5044;48.652;9.250;2023-06-04T13:47:45;3.92;;;2.45;;
10009;SDS011;5044;48.652;9.250;2023-06-04T13:50:12;4.88;;;2.85;;
10009;SDS011;5044;48.652;9.250;2023-06-04T13:52:38;4.55;;;2.50;;
10009;SDS011;5044;48.652;9.250;2023-06-04T13:55:06;3.88;;;3.00;;
10009;SDS011;5044;48.652;9.250;2023-06-04T13:57:33;4.63;;;2.50;;
10009;SDS011;5044;48.652;9.250;2023-06-04T14:00:00;4.53;;;2.30;;
10009;SDS011;5044;48.652;9.250;2023-06-04T14:02:28;7.22;;;2.60;;
10009;SDS011;5044;48.652;9.250;2023-06-04T14:04:55;4.90;;;2.38;;
10009;SDS011;5044;48.652;9.250;2023-06-04T14:07:21;3.25;;;2.55;;
10009;SDS011;5044;48.652;9.250;2023-06-04T14:09:48;3.05;;;2.70;;
10009;SDS011;5044;48.652;9.250;2023-06-04T14:12:19;3.65;;;2.58;;
10009;SDS011;5044;48.652;9.250;2023-06-04T14:14:46;3.30;;;2.60;;
10009;SDS011;5044;48.652;9.250;2023-06-04T14:17:13;3.97;;;2.30;;
10009;SDS011;5044;48.652;9.250;2023-06-04T14:19:41;2.88;;;2.20;;
10009;SDS011;5044;48.652;9.250;2023-06-04T14:22:09;3.58;;;2.90;;
10009;SDS011;5044;48.652;9.250;2023-06-04T14:24:36;2.38;;;2.08;;
10009;SDS011;5044;48.652;9.250;2023-06-04T14:27:03;2.47;;;2.15;;
10009;SDS011;5044;48.652;9.250;2023-06-04T14:29:31;5.55;;;2.15;;
10009;SDS011;5044;48.652;9.250;2023-06-04T14:31:58;4.97;;;2.17;;
10009;SDS011;5044;48.652;9.250;2023-06-04T14:34:25;4.28;;;2.17;;
10009;SDS011;5044;48.652;9.250;2023-06-04T14:36:53;2.97;;;2.50;;
10009;SDS011;5044;48.652;9.250;2023-06-04T14:39:22;3.20;;;2.25;;
10009;SDS011;5044;48.652;9.250;2023-06-04T14:41:49;3.53;;;2.65;;
10009;SDS011;5044;48.652;9.250;2023-06-04T14:44:17;3.65;;;2.20;;
10009;SDS011;5044;48.652;9.250;2023-06-04T14:46:44;5.22;;;2.05;;
10009;SDS011;5044;48.652;9.250;2023-06-04T14:49:10;3.70;;;2.00;;
10009;SDS011;5044;48.652;9.250;2023-06-04T14:51:37;2.60;;;2.40;;
10009;SDS011;5044;48.652;9.250;2023-06-04T14:54:06;2.50;;;2.30;;
10009;SDS011;5044;48.652;9.250;2023-06-04T14:56:32;4.03;;;2.53;;
10009;SDS011;5044;48.652;9.250;2023-06-04T14:58:59;3.05;;;2.25;;
10009;SDS011;5044;48.652;9.250;2023-06-04T15:01:27;4.00;;;2.20;;
10009;SDS011;5044;48.652;9.250;2023-06-04T15:03:53;3.05;;;2.53;;
10009;SDS011;5044;48.652;9.250;2023-06-04T15:06:20;4.70;;;2.53;;
10009;SDS011;5044;48.652;9.250;2023-06-04T15:08:47;3.60;;;2.20;;
10009;SDS011;5044;48.652;9.250;2023-06-04T15:11:15;2.92;;;2.33;;